Time;durP1;ratioP1;P1;durP2;ratioP2;P2;SDS_P1;SDS_P2;PMS_P1;PMS_P2;Temp;Humidity;BMP_temperature;BMP_pressure;BME280_temperature;BME280_humidity;BME280_pressure;Samples;Min_cycle;Max_cycle;Signal;HPM_P1;HPM_P2
2021/09/12 00:02:07;;;;;;;;;;;;;;;24.64;48.48;101791.09;5059792;28;19917;-87
2021/09/12 00:04:32;;;;;;;;;;;;;;;23.46;51.68;101788.72;5058661;28;19917;-87
2021/09/12 00:06:57;;;;;;;;;;;;;;;25.32;46.92;101795.84;5058836;28;19916;-87
2021/09/12 00:09:23;;;;;;;;;;;;;;;25.12;47.33;101793.03;5058366;28;19960;-87
2021/09/12 00:11:48;;;;;;;;;;;;;;;24.53;48.51;101786.53;5060285;28;19916;-87
2021/09/12 00:14:14;;;;;;;;;;;;;;;24.45;48.18;101782.72;5060118;28;19921;-87
2021/09/12 00:16:40;;;;;;;;;;;;;;;24.91;47.10;101786.75;5060436;28;19947;-87
2021/09/12 00:19:05;;;;;;;;;;;;;;;24.07;49.28;101779.66;5060505;28;19921;-88
2021/09/12 00:21:31;;;;;;;;;;;;;;;23.65;50.41;101780.56;5059900;28;19963;-87
2021/09/12 00:23:56;;;;;;;;;;;;;;;23.30;51.58;101781.78;5059751;28;19924;-87
2021/09/12 00:26:21;;;;;;;;;;;;;;;22.83;53.11;101778.44;5061312;28;19920;-88
2021/09/12 00:28:47;;;;;;;;;;;;;;;24.01;49.81;101781.06;5061552;28;19920;-87
2021/09/12 00:31:12;;;;;;;;;;;;;;;23.70;50.48;101777.38;5061627;28;19917;-88
2021/09/12 00:33:37;;;;;;;;;;;;;;;23.42;50.36;101776.19;5060513;28;19921;-88
2021/09/12 00:36:03;;;;;;;;;;;;;;;23.67;49.80;101773.03;5059215;28;20366;-88
2021/09/12 00:38:28;;;;;;;;;;;;;;;24.35;47.97;101772.50;5059432;28;19963;-87
2021/09/12 00:40:57;;;;;;;;;;;;;;;23.77;49.92;101767.53;5059664;28;19960;-86
2021/09/12 00:43:23;;;;;;;;;;;;;;;24.38;47.80;101771.31;5043466;28;19921;-87
2021/09/12 00:45:55;;;;;;;;;;;;;;;23.69;49.83;101770.13;5060368;28;19916;-86
2021/09/12 00:48:21;;;;;;;;;;;;;;;24.04;48.41;101764.22;5060172;28;20386;-87
2021/09/12 00:50:46;;;;;;;;;;;;;;;23.27;51.15;101771.00;5061751;28;19905;-86
2021/09/12 00:53:11;;;;;;;;;;;;;;;22.57;53.11;101762.22;5060781;28;19924;-87
2021/09/12 00:55:38;;;;;;;;;;;;;;;23.06;52.27;101761.78;5059711;28;19947;-87
2021/09/12 00:58:04;;;;;;;;;;;;;;;23.95;49.39;101761.41;5061165;28;19968;-87
2021/09/12 01:00:29;;;;;;;;;;;;;;;23.00;51.83;101765.94;5059209;28;19962;-88
2021/09/12 01:02:54;;;;;;;;;;;;;;;23.99;48.82;101769.28;5059708;28;19925;-87
2021/09/12 01:05:20;;;;;;;;;;;;;;;24.21;47.61;101765.44;5060623;28;19939;-88
2021/09/12 01:07:46;;;;;;;;;;;;;;;23.88;48.83;101766.59;5059901;28;19921;-88
2021/09/12 01:10:13;;;;;;;;;;;;;;;24.10;48.48;101767.47;5060581;28;19917;-87
2021/09/12 01:12:38;;;;;;;;;;;;;;;23.39;50.74;101762.66;5059881;28;19923;-88
2021/09/12 01:15:04;;;;;;;;;;;;;;;23.46;49.91;101764.75;5059194;28;19921;-89
2021/09/12 01:17:30;;;;;;;;;;;;;;;23.01;50.61;101764.94;5059005;28;19921;-88
2021/09/12 01:19:55;;;;;;;;;;;;;;;23.18;51.24;101767.16;5061437;28;20068;-88
2021/09/12 01:22:21;;;;;;;;;;;;;;;23.29;51.51;101770.88;5060643;28;19916;-88
2021/09/12 01:24:46;;;;;;;;;;;;;;;23.13;51.47;101765.78;5058550;28;20271;-88
2021/09/12 01:27:12;;;;;;;;;;;;;;;22.68;52.51;101768.69;5059452;28;19920;-88
2021/09/12 01:29:37;;;;;;;;;;;;;;;22.61;53.06;101766.44;5059413;28;19919;-86
2021/09/12 01:32:03;;;;;;;;;;;;;;;22.97;52.00;101766.22;5059412;28;19921;-88
2021/09/12 01:34:28;;;;;;;;;;;;;;;22.74;51.97;101765.44;5059312;28;19917;-87
2021/09/12 01:36:53;;;;;;;;;;;;;;;22.60;52.65;101764.72;5062485;28;19912;-87
2021/09/12 01:39:18;;;;;;;;;;;;;;;23.04;51.51;101763.78;5063752;28;20015;-88
2021/09/12 01:41:44;;;;;;;;;;;;;;;22.97;51.70;101764.31;5064036;28;19917;-87
2021/09/12 01:44:09;;;;;;;;;;;;;;;22.98;51.33;101767.97;5063757;28;19916;-88
2021/09/12 01:46:36;;;;;;;;;;;;;;;23.01;51.50;101754.78;5063646;28;19928;-88
2021/09/12 01:49:04;;;;;;;;;;;;;;;23.08;51.53;101766.16;5062375;28;19942;-87
2021/09/12 01:51:29;;;;;;;;;;;;;;;22.82;51.84;101776.69;5062474;28;19917;-88
2021/09/12 01:53:54;;;;;;;;;;;;;;;22.75;52.25;101770.81;5064536;28;19931;-88
2021/09/12 01:56:19;;;;;;;;;;;;;;;23.03;51.67;101773.09;5064304;28;19916;-87
2021/09/12 01:58:45;;;;;;;;;;;;;;;23.45;49.72;101767.66;5063594;28;19960;-87
2021/09/12 02:01:10;;;;;;;;;;;;;;;23.00;51.26;101772.34;5063220;28;19913;-87
2021/09/12 02:03:35;;;;;;;;;;;;;;;23.32;49.95;101768.69;5062257;28;19921;-87
2021/09/12 02:06:01;;;;;;;;;;;;;;;23.60;49.00;101762.66;5062302;28;19917;-86
2021/09/12 02:08:27;;;;;;;;;;;;;;;23.31;49.65;101763.31;5062218;28;19935;-87
2021/09/12 02:10:52;;;;;;;;;;;;;;;23.08;50.66;101770.81;5062877;28;19959;-86
2021/09/12 02:13:17;;;;;;;;;;;;;;;22.67;52.15;101769.72;5063564;28;20358;-87
2021/09/12 02:15:43;;;;;;;;;;;;;;;22.92;51.44;101766.63;5062809;28;19976;-87
2021/09/12 02:18:08;;;;;;;;;;;;;;;23.16;50.77;101765.56;5063444;28;19939;-87
2021/09/12 02:20:34;;;;;;;;;;;;;;;22.48;52.42;101772.13;5061342;28;20379;-86
2021/09/12 02:22:59;;;;;;;;;;;;;;;22.35;52.64;101778.81;5061361;28;20058;-86
2021/09/12 02:25:24;;;;;;;;;;;;;;;22.82;51.24;101777.53;5061529;28;20410;-88
2021/09/12 02:27:50;;;;;;;;;;;;;;;23.35;49.92;101778.59;5063403;28;19928;-88
2021/09/12 02:30:15;;;;;;;;;;;;;;;22.50;52.49;101774.75;5063154;28;19920;-87
2021/09/12 02:32:40;;;;;;;;;;;;;;;22.45;52.52;101769.63;5063956;28;19921;-88
2021/09/12 02:35:06;;;;;;;;;;;;;;;22.30;53.08;101771.75;5062763;28;19968;-86
2021/09/12 02:37:32;;;;;;;;;;;;;;;22.63;52.05;101769.97;5064073;28;19916;-87
2021/09/12 02:39:57;;;;;;;;;;;;;;;22.68;51.82;101763.16;5062842;28;19917;-88
2021/09/12 02:42:22;;;;;;;;;;;;;;;22.86;51.54;101769.91;5062039;28;19916;-88
2021/09/12 02:44:47;;;;;;;;;;;;;;;23.14;50.63;101773.97;5063108;28;19916;-87
2021/09/12 02:47:13;;;;;;;;;;;;;;;22.89;51.25;101780.69;5063506;28;20011;-88
2021/09/12 02:49:38;;;;;;;;;;;;;;;22.51;52.09;101773.75;5065871;28;19962;-88
2021/09/12 02:52:04;;;;;;;;;;;;;;;22.65;52.07;101767.09;5063778;28;19917;-88
2021/09/12 02:54:29;;;;;;;;;;;;;;;22.79;51.14;101774.19;5062464;28;20020;-86
2021/09/12 02:56:54;;;;;;;;;;;;;;;23.38;49.72;101769.19;5061883;28;20011;-87
2021/09/12 02:59:20;;;;;;;;;;;;;;;22.91;50.81;101766.75;5061502;28;19917;-86
2021/09/12 03:01:45;;;;;;;;;;;;;;;23.26;49.88;101769.22;5061746;28;19995;-86
2021/09/12 03:04:10;;;;;;;;;;;;;;;23.13;50.28;101766.69;5061813;28;19917;-86
2021/09/12 03:06:35;;;;;;;;;;;;;;;22.99;50.95;101759.56;5060661;28;20378;-86
2021/09/12 03:09:01;;;;;;;;;;;;;;;23.07;50.94;101766.28;5061027;28;19927;-86
2021/09/12 03:11:26;;;;;;;;;;;;;;;22.54;52.12;101781.78;5061723;28;19917;-87
2021/09/12 03:13:51;;;;;;;;;;;;;;;22.95;51.28;101776.53;5060298;28;19920;-87
2021/09/12 03:16:16;;;;;;;;;;;;;;;22.58;52.87;101774.97;5061218;28;19917;-87
2021/09/12 03:18:43;;;;;;;;;;;;;;;22.64;52.75;101774.47;5060810;28;19913;-88
2021/09/12 03:21:09;;;;;;;;;;;;;;;22.88;51.99;101769.78;5060887;28;19964;-88
2021/09/12 03:23:34;;;;;;;;;;;;;;;22.79;52.72;101771.41;5060515;28;19924;-87
2021/09/12 03:25:59;;;;;;;;;;;;;;;22.64;52.63;101774.47;5060907;28;19943;-87
2021/09/12 03:28:24;;;;;;;;;;;;;;;22.49;53.52;101767.47;5060972;28;20044;-86
2021/09/12 03:30:50;;;;;;;;;;;;;;;22.51;53.34;101767.34;5060948;28;19952;-87
2021/09/12 03:33:16;;;;;;;;;;;;;;;22.47;53.88;101769.50;5061506;28;19920;-87
2021/09/12 03:35:42;;;;;;;;;;;;;;;22.32;54.29;101765.28;5062103;28;19924;-87
2021/09/12 03:38:08;;;;;;;;;;;;;;;21.80;55.35;101768.50;5062736;28;19917;-87
2021/09/12 03:40:33;;;;;;;;;;;;;;;23.26;51.49;101762.84;5062427;28;19939;-86
2021/09/12 03:42:58;;;;;;;;;;;;;;;23.42;50.83;101771.53;5061367;28;20301;-88
2021/09/12 03:45:24;;;;;;;;;;;;;;;22.55;53.19;101778.00;5063915;28;19917;-87
2021/09/12 03:47:49;;;;;;;;;;;;;;;22.74;53.33;101776.47;5061867;28;20393;-87
2021/09/12 03:50:15;;;;;;;;;;;;;;;23.39;51.09;101763.53;5062507;28;19921;-87
2021/09/12 03:52:40;;;;;;;;;;;;;;;23.11;52.27;101765.06;5062623;28;19917;-88
2021/09/12 03:55:07;;;;;;;;;;;;;;;21.79;55.56;101777.75;5061558;28;19933;-86
2021/09/12 03:57:32;;;;;;;;;;;;;;;22.24;54.54;101785.19;5060666;28;19956;-87
2021/09/12 03:59:58;;;;;;;;;;;;;;;22.70;52.60;101778.59;5061359;28;19925;-85
2021/09/12 04:02:23;;;;;;;;;;;;;;;22.92;52.47;101780.41;5061369;28;19917;-86
2021/09/12 04:04:48;;;;;;;;;;;;;;;23.20;51.92;101775.28;5061303;28;20441;-87
2021/09/12 04:07:13;;;;;;;;;;;;;;;23.41;51.23;101778.06;5061010;28;19917;-87
2021/09/12 04:09:40;;;;;;;;;;;;;;;23.28;51.03;101780.16;5058836;28;19917;-87
2021/09/12 04:12:05;;;;;;;;;;;;;;;23.38;51.47;101774.72;5060098;28;20414;-86
2021/09/12 04:14:30;;;;;;;;;;;;;;;22.50;54.46;101776.66;5059364;28;19927;-86
2021/09/12 04:16:56;;;;;;;;;;;;;;;22.79;53.09;101769.53;5059830;28;20008;-87
2021/09/12 04:19:21;;;;;;;;;;;;;;;23.29;52.06;101770.88;5061147;28;20381;-88
2021/09/12 04:21:46;;;;;;;;;;;;;;;23.39;51.65;101768.19;5060400;28;20027;-87
2021/09/12 04:24:12;;;;;;;;;;;;;;;23.23;51.92;101765.88;5059937;28;19928;-87
2021/09/12 04:26:40;;;;;;;;;;;;;;;22.75;53.17;101775.44;5060369;28;20320;-87
2021/09/12 04:29:05;;;;;;;;;;;;;;;23.36;51.89;101767.44;5058616;28;19963;-88
2021/09/12 04:31:31;;;;;;;;;;;;;;;23.03;52.94;101767.59;5058471;28;19921;-86
2021/09/12 04:33:56;;;;;;;;;;;;;;;22.65;54.10;101765.19;5058391;28;19923;-87
2021/09/12 04:36:22;;;;;;;;;;;;;;;23.02;53.55;101761.16;5059009;28;19917;-87
2021/09/12 04:38:47;;;;;;;;;;;;;;;23.39;51.95;101757.16;5059859;28;19916;-88
2021/09/12 04:41:12;;;;;;;;;;;;;;;23.34;51.96;101761.19;5060076;28;19917;-87
2021/09/12 04:43:37;;;;;;;;;;;;;;;23.34;51.65;101752.91;5059852;28;19920;-87
2021/09/12 04:46:03;;;;;;;;;;;;;;;22.86;53.89;101757.97;5059627;28;19917;-87
2021/09/12 04:48:28;;;;;;;;;;;;;;;23.09;52.77;101762.44;5058996;28;19917;-88
2021/09/12 04:50:54;;;;;;;;;;;;;;;22.88;53.28;101759.59;5058505;28;19917;-88
2021/09/12 04:53:20;;;;;;;;;;;;;;;22.35;55.34;101765.00;5059622;28;19916;-88
2021/09/12 04:55:45;;;;;;;;;;;;;;;22.79;53.89;101761.25;5059012;28;19928;-88
2021/09/12 04:58:10;;;;;;;;;;;;;;;22.92;53.51;101766.63;5059138;28;19963;-88
2021/09/12 05:00:35;;;;;;;;;;;;;;;23.05;52.92;101768.31;5058729;28;19920;-87
2021/09/12 05:03:01;;;;;;;;;;;;;;;21.90;57.28;101772.25;5058385;28;19955;-87
2021/09/12 05:05:26;;;;;;;;;;;;;;;21.82;58.02;101772.00;5059369;28;19976;-86
2021/09/12 05:07:54;;;;;;;;;;;;;;;21.67;58.44;101773.25;5057632;28;19923;-87
2021/09/12 05:10:22;;;;;;;;;;;;;;;22.11;57.15;101771.50;5059868;28;20255;-87
2021/09/12 05:12:47;;;;;;;;;;;;;;;22.69;55.44;101768.59;5063119;28;19921;-87
2021/09/12 05:15:13;;;;;;;;;;;;;;;22.72;54.90;101771.09;5063590;28;19960;-87
2021/09/12 05:17:38;;;;;;;;;;;;;;;22.12;57.21;101774.13;5064124;28;19927;-87
2021/09/12 05:20:04;;;;;;;;;;;;;;;22.17;57.38;101771.00;5063281;28;19984;-86
2021/09/12 05:22:30;;;;;;;;;;;;;;;22.39;56.83;101774.75;5062403;28;19924;-87
2021/09/12 05:24:55;;;;;;;;;;;;;;;22.71;55.89;101783.09;5063427;28;19931;-87
2021/09/12 05:27:21;;;;;;;;;;;;;;;22.68;55.36;101774.19;5065546;28;20011;-87
2021/09/12 05:29:46;;;;;;;;;;;;;;;22.99;55.03;101776.13;5064507;28;19913;-86
2021/09/12 05:32:11;;;;;;;;;;;;;;;22.89;55.32;101774.25;5065453;28;19921;-87
2021/09/12 05:34:37;;;;;;;;;;;;;;;22.79;55.44;101771.41;5064936;28;19920;-86
2021/09/12 05:37:02;;;;;;;;;;;;;;;23.17;54.12;101770.94;5064864;28;19912;-87
2021/09/12 05:39:27;;;;;;;;;;;;;;;23.24;53.88;101768.50;5065779;28;20412;-86
2021/09/12 05:41:52;;;;;;;;;;;;;;;22.95;54.30;101773.75;5063613;28;19912;-87
2021/09/12 05:44:18;;;;;;;;;;;;;;;22.29;56.97;101774.63;5064844;28;19971;-87
2021/09/12 05:46:44;;;;;;;;;;;;;;;22.35;56.51;101781.56;5065001;28;19923;-88
2021/09/12 05:49:09;;;;;;;;;;;;;;;22.92;54.42;101769.38;5064896;28;19924;-87
2021/09/12 05:51:35;;;;;;;;;;;;;;;22.15;56.97;101783.16;5065641;28;19928;-88
2021/09/12 05:54:00;;;;;;;;;;;;;;;22.45;56.08;101779.75;5061653;28;19921;-87
2021/09/12 05:56:25;;;;;;;;;;;;;;;22.18;57.05;101783.78;5061566;28;19964;-86
2021/09/12 05:58:50;;;;;;;;;;;;;;;22.41;56.05;101783.81;5062792;28;19916;-86
2021/09/12 06:01:16;;;;;;;;;;;;;;;21.95;57.26;101783.78;5061613;28;20298;-86
2021/09/12 06:03:41;;;;;;;;;;;;;;;23.04;54.28;101775.72;5061870;28;19960;-86
2021/09/12 06:06:06;;;;;;;;;;;;;;;22.74;55.31;101780.09;5061059;28;19917;-86
2021/09/12 06:08:31;;;;;;;;;;;;;;;22.73;55.44;101788.50;5061250;28;19913;-85
2021/09/12 06:10:58;;;;;;;;;;;;;;;22.71;55.28;101790.53;5060873;28;19963;-85
2021/09/12 06:13:25;;;;;;;;;;;;;;;23.59;53.06;101792.16;5060385;28;19921;-87
2021/09/12 06:15:50;;;;;;;;;;;;;;;23.11;54.35;101796.28;5060734;28;20444;-83
2021/09/12 06:18:19;;;;;;;;;;;;;;;22.45;56.01;101791.69;5059347;28;19920;-86
2021/09/12 06:20:44;;;;;;;;;;;;;;;23.00;54.37;101791.66;5046420;28;20000;-85
2021/09/12 06:23:09;;;;;;;;;;;;;;;21.93;58.27;101791.28;5052832;28;19957;-85
2021/09/12 06:25:35;;;;;;;;;;;;;;;23.06;54.88;101789.41;5046353;28;19933;-86
2021/09/12 06:28:00;;;;;;;;;;;;;;;23.51;52.71;101800.25;5048359;28;19917;-86
2021/09/12 06:30:25;;;;;;;;;;;;;;;22.83;55.14;101800.50;5042316;28;19992;-86
2021/09/12 06:32:50;;;;;;;;;;;;;;;23.62;52.74;101780.81;5047314;28;20008;-83
2021/09/12 06:35:16;;;;;;;;;;;;;;;23.57;52.98;101788.66;5037750;28;19918;-85
2021/09/12 06:37:41;;;;;;;;;;;;;;;23.32;53.32;101795.44;5038001;28;19917;-83
2021/09/12 06:40:07;;;;;;;;;;;;;;;23.79;51.78;101793.13;5038041;28;19917;-83
2021/09/12 06:42:32;;;;;;;;;;;;;;;22.02;57.82;101799.81;5039452;28;19917;-83
2021/09/12 06:44:58;;;;;;;;;;;;;;;23.55;53.35;101796.19;5038866;28;19944;-83
2021/09/12 06:47:24;;;;;;;;;;;;;;;23.73;52.88;101796.44;5036278;28;19917;-85
2021/09/12 06:49:49;;;;;;;;;;;;;;;23.30;54.11;101797.47;5038582;28;20275;-84
2021/09/12 06:52:14;;;;;;;;;;;;;;;23.59;53.22;101805.09;5038310;28;20311;-84
2021/09/12 06:54:39;;;;;;;;;;;;;;;24.22;51.31;101802.28;5040289;28;19932;-84
2021/09/12 06:57:05;;;;;;;;;;;;;;;23.08;54.04;101801.16;5037998;28;19913;-84
2021/09/12 06:59:30;;;;;;;;;;;;;;;23.00;54.71;101810.09;5039371;28;19924;-84
2021/09/12 07:01:55;;;;;;;;;;;;;;;23.16;54.54;101801.44;5039761;28;19921;-85
2021/09/12 07:04:21;;;;;;;;;;;;;;;23.10;54.84;101811.13;5022433;28;19921;-84
2021/09/12 07:06:46;;;;;;;;;;;;;;;23.74;52.72;101811.16;5042672;28;19918;-84
2021/09/12 07:09:11;;;;;;;;;;;;;;;23.12;54.00;101813.75;5039788;28;19917;-84
2021/09/12 07:11:38;;;;;;;;;;;;;;;23.79;53.39;101822.66;5041459;28;19917;-83
2021/09/12 07:14:04;;;;;;;;;;;;;;;24.47;50.97;101822.16;5039649;28;19944;-85
2021/09/12 07:16:29;;;;;;;;;;;;;;;24.04;52.10;101813.97;5036942;28;20298;-81
2021/09/12 07:18:54;;;;;;;;;;;;;;;24.22;51.90;101805.03;5035745;28;20324;-82
2021/09/12 07:21:20;;;;;;;;;;;;;;;24.24;51.67;101811.28;5035176;28;20382;-81
2021/09/12 07:23:47;;;;;;;;;;;;;;;24.05;52.20;101807.44;5034744;28;19927;-82
2021/09/12 07:26:12;;;;;;;;;;;;;;;25.01;49.76;101812.53;5035910;28;20012;-82
2021/09/12 07:28:38;;;;;;;;;;;;;;;24.17;51.71;101812.84;5034758;28;19960;-81
2021/09/12 07:31:07;;;;;;;;;;;;;;;24.27;52.09;101816.53;5035110;28;20430;-81
2021/09/12 07:33:32;;;;;;;;;;;;;;;23.79;52.44;101814.38;5033840;28;19917;-81
2021/09/12 07:35:57;;;;;;;;;;;;;;;24.70;50.78;101809.88;5034372;28;19913;-82
2021/09/12 07:38:24;;;;;;;;;;;;;;;24.69;51.18;101810.91;5036306;28;19924;-82
2021/09/12 07:40:49;;;;;;;;;;;;;;;24.99;50.33;101820.13;5036491;28;19952;-83
2021/09/12 07:43:14;;;;;;;;;;;;;;;24.41;52.07;101824.47;5035196;28;19925;-84
2021/09/12 07:45:40;;;;;;;;;;;;;;;24.69;51.60;101827.50;5034662;28;19917;-84
2021/09/12 07:48:05;;;;;;;;;;;;;;;24.93;51.52;101829.88;5035216;28;20388;-84
2021/09/12 07:50:30;;;;;;;;;;;;;;;24.81;52.14;101827.38;5034483;28;19917;-82
2021/09/12 07:52:55;;;;;;;;;;;;;;;24.85;51.65;101831.59;5034156;28;19957;-82
2021/09/12 07:55:21;;;;;;;;;;;;;;;24.16;54.03;101844.31;5035262;28;20177;-83
2021/09/12 07:57:46;;;;;;;;;;;;;;;24.94;51.60;101839.03;5037344;28;19917;-85
2021/09/12 08:00:11;;;;;;;;;;;;;;;25.31;49.89;101841.16;5034200;28;19917;-82
2021/09/12 08:02:37;;;;;;;;;;;;;;;24.63;52.41;101843.81;5048845;28;19933;-82
2021/09/12 08:05:02;;;;;;;;;;;;;;;23.53;56.47;101843.28;5034794;28;20327;-81
2021/09/12 08:07:28;;;;;;;;;;;;;;;23.51;57.24;101849.97;5033213;28;19924;-81
2021/09/12 08:09:53;;;;;;;;;;;;;;;23.93;55.14;101854.63;5034539;28;19964;-80
2021/09/12 08:12:18;;;;;;;;;;;;;;;24.48;54.08;101854.34;5036079;28;20263;-82
2021/09/12 08:14:43;;;;;;;;;;;;;;;24.68;53.46;101847.88;5033496;28;20007;-82
2021/09/12 08:17:09;;;;;;;;;;;;;;;24.77;53.53;101851.69;5034784;28;20351;-83
2021/09/12 08:19:34;;;;;;;;;;;;;;;23.80;55.93;101857.59;5033051;28;19920;-82
2021/09/12 08:21:59;;;;;;;;;;;;;;;25.20;52.03;101849.56;5041582;28;20023;-81
2021/09/12 08:24:24;;;;;;;;;;;;;;;24.85;52.41;101853.75;5049071;28;20008;-81
2021/09/12 08:26:50;;;;;;;;;;;;;;;25.10;52.32;101858.75;5034322;28;20289;-82
2021/09/12 08:29:15;;;;;;;;;;;;;;;25.50;50.27;101851.38;5032771;28;19929;-82
2021/09/12 08:31:41;;;;;;;;;;;;;;;26.06;49.52;101863.56;5031891;28;19971;-82
2021/09/12 08:34:06;;;;;;;;;;;;;;;25.92;49.38;101866.78;5032767;28;19967;-81
2021/09/12 08:36:31;;;;;;;;;;;;;;;25.58;49.90;101861.72;5033716;28;19943;-81
2021/09/12 08:38:57;;;;;;;;;;;;;;;25.92;49.94;101867.66;5031912;28;19917;-82
2021/09/12 08:41:22;;;;;;;;;;;;;;;26.07;49.15;101870.84;5033858;28;19918;-82
2021/09/12 08:43:48;;;;;;;;;;;;;;;26.30;48.86;101864.94;5032876;28;19918;-83
2021/09/12 08:46:16;;;;;;;;;;;;;;;26.88;47.11;101870.25;5032468;28;19939;-82
2021/09/12 08:48:41;;;;;;;;;;;;;;;26.48;47.88;101853.91;5034145;28;20398;-82
2021/09/12 08:51:08;;;;;;;;;;;;;;;26.78;47.28;101863.00;5032444;28;19917;-83
2021/09/12 08:53:33;;;;;;;;;;;;;;;26.73;47.81;101857.91;5032618;28;19924;-82
2021/09/12 08:55:58;;;;;;;;;;;;;;;25.67;49.81;101869.16;5033859;28;20039;-83
2021/09/12 08:58:25;;;;;;;;;;;;;;;25.51;50.63;101855.88;5035268;28;19955;-83
2021/09/12 09:00:50;;;;;;;;;;;;;;;26.17;49.29;101866.16;5033342;28;19925;-82
2021/09/12 09:03:16;;;;;;;;;;;;;;;27.09;46.78;101873.78;5034878;28;19921;-83
2021/09/12 09:05:41;;;;;;;;;;;;;;;26.98;46.59;101881.31;5051577;28;19920;-81
2021/09/12 09:08:14;;;;;;;;;;;;;;;26.16;48.34;101886.63;5054956;28;19917;-84
2021/09/12 09:10:50;;;;;;;;;;;;;;;26.03;49.17;101887.94;5054321;28;20394;-82
2021/09/12 09:13:34;;;;;;;;;;;;;;;26.69;47.60;101874.03;5053638;28;19974;-82
2021/09/12 09:16:00;;;;;;;;;;;;;;;27.00;46.34;101878.38;5055235;28;19953;-82
2021/09/12 09:18:30;;;;;;;;;;;;;;;25.48;50.65;101881.09;5053203;28;20263;-81
2021/09/12 09:20:55;;;;;;;;;;;;;;;25.57;49.55;101885.78;5054770;28;19917;-82
2021/09/12 09:23:20;;;;;;;;;;;;;;;27.31;46.19;101880.75;5054429;28;19924;-81
2021/09/12 09:25:46;;;;;;;;;;;;;;;26.96;46.37;101871.38;5052922;28;19968;-82
2021/09/12 09:28:12;;;;;;;;;;;;;;;27.10;45.43;101875.50;5055531;28;20555;-82
2021/09/12 09:30:46;;;;;;;;;;;;;;;27.29;44.61;101880.06;5053553;28;19921;-82
2021/09/12 09:33:12;;;;;;;;;;;;;;;27.45;43.90;101877.47;5051756;28;19963;-82
2021/09/12 09:35:38;;;;;;;;;;;;;;;27.99;43.35;101873.78;5051710;28;19917;-81
2021/09/12 09:38:03;;;;;;;;;;;;;;;27.68;43.55;101866.72;5054069;28;19943;-82
2021/09/12 09:40:28;;;;;;;;;;;;;;;28.71;41.43;101859.59;5053071;28;19988;-85
2021/09/12 09:42:54;;;;;;;;;;;;;;;28.79;40.94;101865.19;5053501;28;20278;-85
2021/09/12 09:45:20;;;;;;;;;;;;;;;28.87;40.89;101865.22;5054999;28;20354;-84
2021/09/12 09:47:46;;;;;;;;;;;;;;;28.45;41.63;101871.63;5055608;28;19917;-84
2021/09/12 09:50:14;;;;;;;;;;;;;;;28.60;40.95;101872.78;5053920;28;19913;-81
2021/09/12 09:52:46;;;;;;;;;;;;;;;28.49;41.38;101863.81;5054466;28;20007;-84
2021/09/12 09:55:15;;;;;;;;;;;;;;;28.54;40.93;101873.41;5051319;28;20385;-88
2021/09/12 09:57:41;;;;;;;;;;;;;;;26.96;44.13;101874.16;5054474;28;19970;-82
2021/09/12 10:00:06;;;;;;;;;;;;;;;27.55;44.02;101875.50;5055929;28;19948;-82
2021/09/12 10:02:32;;;;;;;;;;;;;;;28.10;42.67;101867.94;5055352;28;19990;-83
2021/09/12 10:04:59;;;;;;;;;;;;;;;28.86;40.71;101866.25;5057288;28;19921;-81
2021/09/12 10:07:25;;;;;;;;;;;;;;;28.51;41.21;101872.88;5057484;28;19917;-83
2021/09/12 10:09:50;;;;;;;;;;;;;;;27.82;42.71;101870.84;5056614;28;19928;-81
2021/09/12 10:12:16;;;;;;;;;;;;;;;27.44;44.00;101881.28;5056983;28;19921;-82
2021/09/12 10:14:52;;;;;;;;;;;;;;;27.46;43.73;101878.34;5057757;28;19921;-82
2021/09/12 10:17:23;;;;;;;;;;;;;;;27.90;42.31;101870.00;5057258;28;19917;-83
2021/09/12 10:19:48;;;;;;;;;;;;;;;28.57;41.10;101875.00;5057656;28;19913;-84
2021/09/12 10:22:19;;;;;;;;;;;;;;;28.28;41.37;101882.66;5057510;28;20015;-85
2021/09/12 10:25:02;;;;;;;;;;;;;;;28.14;40.64;101883.25;5057395;28;19987;-83
2021/09/12 10:27:41;;;;;;;;;;;;;;;28.42;40.64;101880.31;5058301;28;19924;-85
2021/09/12 10:30:25;;;;;;;;;;;;;;;28.49;40.74;101880.50;5057000;28;20440;-86
2021/09/12 10:33:16;;;;;;;;;;;;;;;29.24;39.66;101879.78;5057883;28;19921;-87
2021/09/12 10:35:48;;;;;;;;;;;;;;;28.11;40.65;101872.47;5056249;28;19927;-86
2021/09/12 10:38:36;;;;;;;;;;;;;;;28.39;40.46;101875.06;5055257;28;20270;-86
2021/09/12 10:41:01;;;;;;;;;;;;;;;28.71;40.25;101881.88;5069746;28;19917;-85
2021/09/12 10:43:30;;;;;;;;;;;;;;;28.77;39.93;101886.78;5056937;28;20012;-86
2021/09/12 10:45:58;;;;;;;;;;;;;;;27.94;41.15;101871.44;5057191;28;20317;-85
2021/09/12 10:48:23;;;;;;;;;;;;;;;27.34;42.42;101877.69;5056854;28;19967;-86
2021/09/12 10:50:49;;;;;;;;;;;;;;;28.34;40.34;101870.00;5058457;28;19917;-87
2021/09/12 10:53:14;;;;;;;;;;;;;;;27.98;40.92;101870.13;5058091;28;19916;-88
2021/09/12 10:56:00;;;;;;;;;;;;;;;28.24;40.55;101884.03;5055230;28;19913;-87
2021/09/12 10:58:26;;;;;;;;;;;;;;;28.53;39.65;101871.66;5047730;28;19927;-86
2021/09/12 11:00:52;;;;;;;;;;;;;;;29.06;37.64;101871.53;5044552;28;19962;-86
2021/09/12 11:03:17;;;;;;;;;;;;;;;29.10;37.72;101875.72;5049249;28;20393;-87
2021/09/12 11:05:42;;;;;;;;;;;;;;;28.76;38.81;101876.66;5046370;28;20405;-85
2021/09/12 11:08:08;;;;;;;;;;;;;;;28.94;38.13;101879.34;5048058;28;20350;-82
2021/09/12 11:10:46;;;;;;;;;;;;;;;29.28;37.32;101868.13;5045899;28;19932;-83
2021/09/12 11:13:12;;;;;;;;;;;;;;;28.93;38.35;101877.63;5045400;28;19921;-84
2021/09/12 11:15:37;;;;;;;;;;;;;;;28.16;38.24;101872.84;5044755;28;19917;-83
2021/09/12 11:18:03;;;;;;;;;;;;;;;28.44;37.79;101875.44;5043334;28;19917;-81
2021/09/12 11:20:43;;;;;;;;;;;;;;;28.91;37.02;101880.56;5041294;28;19921;-82
2021/09/12 11:23:09;;;;;;;;;;;;;;;29.43;35.94;101873.91;5042144;28;19948;-81
2021/09/12 11:25:34;;;;;;;;;;;;;;;29.19;36.68;101871.06;5043910;28;20378;-82
2021/09/12 11:28:04;;;;;;;;;;;;;;;28.45;36.23;101874.41;5045865;28;19917;-82
2021/09/12 11:30:29;;;;;;;;;;;;;;;28.64;37.47;101870.53;5037677;28;19925;-86
2021/09/12 11:32:54;;;;;;;;;;;;;;;28.40;38.05;101865.66;5047331;28;19924;-83
2021/09/12 11:35:20;;;;;;;;;;;;;;;28.56;37.50;101865.75;5047977;28;19917;-83
2021/09/12 11:37:45;;;;;;;;;;;;;;;28.72;36.26;101870.56;5045409;28;19927;-81
2021/09/12 11:40:10;;;;;;;;;;;;;;;28.91;35.92;101869.44;5043038;28;19917;-85
2021/09/12 11:42:38;;;;;;;;;;;;;;;29.78;34.71;101870.94;5049988;28;19967;-82
2021/09/12 11:45:13;;;;;;;;;;;;;;;29.07;36.18;101873.28;5054497;28;19917;-84
2021/09/12 11:47:38;;;;;;;;;;;;;;;30.00;34.44;101881.44;5055624;28;19925;-86
2021/09/12 11:50:05;;;;;;;;;;;;;;;27.97;37.43;101879.50;5051790;28;19924;-85
2021/09/12 11:52:34;;;;;;;;;;;;;;;28.82;35.14;101875.97;5052190;28;19921;-83
2021/09/12 11:55:01;;;;;;;;;;;;;;;29.05;34.69;101879.03;5045192;28;19964;-83
2021/09/12 11:57:26;;;;;;;;;;;;;;;28.78;34.70;101877.38;5047619;28;20394;-85
2021/09/12 11:59:51;;;;;;;;;;;;;;;29.24;34.49;101871.44;5046342;28;19931;-84
2021/09/12 12:02:23;;;;;;;;;;;;;;;28.77;35.49;101872.84;5041912;28;19921;-84
2021/09/12 12:04:49;;;;;;;;;;;;;;;29.36;34.80;101872.84;5041477;28;20270;-82
2021/09/12 12:07:15;;;;;;;;;;;;;;;28.45;35.32;101869.72;5043892;28;19921;-83
2021/09/12 12:09:41;;;;;;;;;;;;;;;28.83;34.75;101883.31;5043993;28;19936;-84
2021/09/12 12:12:09;;;;;;;;;;;;;;;27.77;35.98;101873.25;5043357;28;19920;-83
2021/09/12 12:14:43;;;;;;;;;;;;;;;28.70;33.92;101868.97;5043731;28;20255;-82
2021/09/12 12:17:12;;;;;;;;;;;;;;;28.14;35.05;101880.47;5042794;28;19921;-83
2021/09/12 12:19:37;;;;;;;;;;;;;;;28.50;34.78;101877.56;5049683;28;20003;-84
2021/09/12 12:22:06;;;;;;;;;;;;;;;29.58;33.52;101879.66;5048216;28;19959;-83
2021/09/12 12:24:36;;;;;;;;;;;;;;;28.53;34.40;101874.44;5049250;28;19967;-84
2021/09/12 12:27:05;;;;;;;;;;;;;;;28.62;34.85;101887.38;5047408;28;20409;-84
2021/09/12 12:29:32;;;;;;;;;;;;;;;28.18;35.56;101881.91;5048415;28;20014;-83
2021/09/12 12:31:58;;;;;;;;;;;;;;;29.61;32.62;101881.25;5044508;28;19932;-86